Terminal Aerodrome Forecast
Issued by NWS

Home | Current Version | Previous Version | Text Only | Print | Product List | Glossary On
Versions: 1 2 3 4 5 6 7 8 9 10 11 12 13 14 15 16 17 18 19 20 21 22 23 24 25 26 27 28 29 30
000
FTUS45 KGJT 290520
TAFTEX
TAF
KTEX 290520Z 2906/3006 VRB03KT P6SM VCSH SCT060 OVC070
     FM290800 VRB03KT P6SM VCSH OVC080
     FM291200 VRB03KT P6SM BKN100
     FM291800 VRB03KT P6SM VCTS BKN100CB
     FM292200 25005KT P6SM VCTS OVC080CB
      TEMPO 2922/2924 -TSRA=

USA.gov is the U.S. government's official web portal to all federal, state and local government web resources and services.